メインページ
METAR-TAF:

METAR-TAF

空港 :

タシュケント国際空港

タシュケント, ウズベキスタン

緯度: 41-16N, 経度: 069-16E, 海抜: 489m

現時点の気象観測

当レポートは27分前の19:00(UTC)に作成
東/北東の風 6kt
気温 20°C
湿度 37%
気圧 1013 hPa
視程: 4000m

METAR: UTTT 181900Z 06006KT 4000 FU NSC 20/05 Q1013 R08R/CLRD70 NOSIG

時間: 00:27 (19:27 UTC)

予報

当レポートは2時間27分前の17:00(UTC)に作成
予報は18日の 18時(UTC)から 19日の 18時(UTC)まで有効
東/北東の風 10kt
視程10km以上
1,500メートル以下は雲なし、積乱雲なし
18日の 18時(UTC)から 18日の 20時(UTC)まで一時的に
視程: 4000m

TAF: UTTT 181700Z 1818/1918 07010KT CAVOK TEMPO 1818/1820 4000 FU

4,000以上の空港の気象観測と天気予報(METAR報とTAF報)

利用可能な観測所は地図上に黄色い丸と赤い丸で示す。

丸の上にカーソルを重ねると観測所名を参照できる。

次にクリックすると気象観測と天気予報を参照できる。

マップの切り替え:黒色「×」印の緑ボタンをクリックして拡大、「-」印の緑ボタンをクリックして縮小、緑色の三角印をクリックして隣りの地図に切り替え


METAR-TAF: